Weather at Guardalavaca Airport

Public forecast

Using degrees Celsius for public forecast. Weather courtesy of forecast.io.

Closest aviation weather report (METAR) to Guardalavaca Airport

Closest report is Frank Pais International Airport, 34.0 nm (62.9 km) SW. Retrieved 2021/07/30 20:50 UTC (27 minutes ago):

MUHG 302050Z 12012G28KT 080V180 7000 VCTS FEW018CB SCT040 BKN060 32/23 Q1015

Closest aviation forecast (TAF) to Guardalavaca Airport

Closest forecast is Frank Pais International Airport, 34.0 nm (62.9 km) SW. Retrieved 2021/07/30 18:03 UTC (3 hours ago):

TAF MUHG 301700Z 3018/3118 10011KT 9000 SCT020 TEMPO 3018/3020 SCT018CB BKN020 BECMG 3101/3103 07007KT